KAIA

Alliance Municipal Airport

Alliance, Nebraska, USA
METAR KAIA 152053Z AUTO 34003KT 10SM FEW030 SCT080 OVC100 21/16 A3024 RMK AO2 RAB37E52 SLP201 P0000 60000 T02110161 56006
Observed Flight Rules
Jul-15 @ 20:53 UTC (9 minutes ago) Visual Flight Rules
Wind Visibility Clouds
340° at 3 knots 10 miles
  • Few at 3,000' AGL
  • Scattered at 8,000' AGL
  • Overcast at 10,000' AGL
Temperatures Readings Precipitation
Current 21°C / 70°F
Dewpoint 16°C / 61°F
Humidity 73%
Altimeter 30.24" Hg
Pressure 1020.1 hPa
Elevation 1196
Current Rain 0.005
METAR KAIA 152053Z AUTO 34003KT 10SM FEW030 SCT080 OVC100 21/16 A3024 RMK AO2 RAB37E52 SLP201 P0000 60000 T02110161 56006
Observed Flight Rules
Jul-15 @ 20:53 UTC
(9 minutes ago)
VFR
Wind Visibility
340° at 3 knots 10 miles
Clouds
  • Few at 3,000' AGL
  • Scattered at 8,000' AGL
  • Overcast at 10,000' AGL
Temperature Dewpoint
21°C / 70°F 16°C / 61°F
Humidity Altimeter Pressure
73% 30.24" Hg 1020.1 hPa
Current Rain
0.005